Time;durP1;ratioP1;P1;durP2;ratioP2;P2;SDS_P1;SDS_P2;PMS_P1;PMS_P2;Temp;Humidity;BMP_temperature;BMP_pressure;BME280_temperature;BME280_humidity;BME280_pressure;Samples;Min_cycle;Max_cycle;Signal;HPM_P1;HPM_P2
2022/08/02 00:01:24;;;;;;;2.83;2.50;;;20.20;99.90;;;;;;5019299;28;20639;-83
2022/08/02 00:03:50;;;;;;;3.57;2.53;;;20.00;99.90;;;;;;5019941;28;20204;-82
2022/08/02 00:06:15;;;;;;;6.80;2.87;;;20.00;99.90;;;;;;5023550;28;20234;-82
2022/08/02 00:08:41;;;;;;;3.53;2.20;;;19.80;99.90;;;;;;5003846;28;20178;-83
2022/08/02 00:11:07;;;;;;;4.60;3.40;;;19.80;99.90;;;;;;5022339;28;20657;-82
2022/08/02 00:13:32;;;;;;;7.00;3.17;;;19.80;99.90;;;;;;5023490;28;20241;-82
2022/08/02 00:15:58;;;;;;;3.23;2.70;;;19.80;99.90;;;;;;5023975;28;20249;-83
2022/08/02 00:18:23;;;;;;;3.57;2.70;;;19.70;99.90;;;;;;5021852;28;20194;-81
2022/08/02 00:20:49;;;;;;;5.73;3.03;;;19.70;99.90;;;;;;5022481;28;20205;-81
2022/08/02 00:23:15;;;;;;;3.40;2.53;;;19.60;99.90;;;;;;5026227;28;20189;-82
2022/08/02 00:25:41;;;;;;;3.63;3.17;;;19.70;99.90;;;;;;5012662;28;20186;-83
2022/08/02 00:28:06;;;;;;;3.90;2.43;;;19.60;99.90;;;;;;5009389;28;20182;-82
2022/08/02 00:30:32;;;;;;;3.73;2.53;;;19.70;99.90;;;;;;5023832;28;20730;-83
2022/08/02 00:32:57;;;;;;;3.73;3.00;;;19.50;99.90;;;;;;5008194;28;20218;-83
2022/08/02 00:35:23;;;;;;;3.03;2.73;;;19.50;99.90;;;;;;5022624;28;20184;-85
2022/08/02 00:37:49;;;;;;;6.30;2.97;;;19.40;99.90;;;;;;5009283;28;20474;-85
2022/08/02 00:40:15;;;;;;;3.20;2.20;;;20.50;99.90;;;;;;5028192;28;20672;-84
2022/08/02 00:42:40;;;;;;;3.70;2.73;;;19.30;99.90;;;;;;5030681;28;20431;-84
2022/08/02 00:45:07;;;;;;;4.00;2.37;;;19.20;99.90;;;;;;5026880;28;20217;-84
2022/08/02 00:47:32;;;;;;;7.10;2.70;;;19.10;99.90;;;;;;5016662;28;20489;-84
2022/08/02 00:49:58;;;;;;;4.77;3.10;;;19.00;99.90;;;;;;5018487;28;20567;-83
2022/08/02 00:52:23;;;;;;;2.97;2.40;;;19.00;99.90;;;;;;5016193;28;20198;-84
2022/08/02 00:54:49;;;;;;;5.33;3.17;;;19.00;99.90;;;;;;5013894;28;20201;-83
2022/08/02 00:57:15;;;;;;;6.53;3.03;;;18.90;99.90;;;;;;5026464;28;20205;-79
2022/08/02 00:59:40;;;;;;;4.80;3.10;;;18.90;99.90;;;;;;5015259;28;20235;-79
2022/08/02 01:02:07;;;;;;;9.43;3.40;;;18.90;99.90;;;;;;5016657;28;20186;-80
2022/08/02 01:04:33;;;;;;;3.80;2.80;;;;;;;;;;5021769;28;20196;-83
2022/08/02 01:07:02;;;;;;;4.13;3.20;;;18.60;99.90;;;;;;5020999;28;20430;-83
2022/08/02 01:09:28;;;;;;;4.03;2.70;;;18.60;99.90;;;;;;5024136;28;20528;-82
2022/08/02 01:11:54;;;;;;;3.50;2.80;;;18.50;99.90;;;;;;5023399;28;20467;-84
2022/08/02 01:14:23;;;;;;;4.17;2.43;;;18.50;99.90;;;;;;5006241;28;20464;-83
2022/08/02 01:17:14;;;;;;;2.27;2.07;;;18.50;99.90;;;;;;5021779;28;20441;-83
2022/08/02 01:20:07;;;;;;;2.53;2.33;;;18.50;99.90;;;;;;5022820;28;20795;-82
2022/08/02 01:22:53;;;;;;;3.07;2.77;;;18.40;99.90;;;;;;5024087;28;20432;-83
2022/08/02 01:25:22;;;;;;;4.93;2.97;;;18.40;99.90;;;;;;5023171;28;20554;-81
2022/08/02 01:28:16;;;;;;;3.23;2.83;;;18.40;99.90;;;;;;5020825;28;20437;-82
2022/08/02 01:30:44;;;;;;;3.57;2.50;;;18.30;99.90;;;;;;5023254;28;20464;-81
2022/08/02 01:33:15;;;;;;;4.70;2.43;;;18.30;99.90;;;;;;5007551;28;20460;-82
2022/08/02 01:35:44;;;;;;;6.77;3.07;;;18.30;99.90;;;;;;5023504;28;20421;-81
2022/08/02 01:38:31;;;;;;;3.27;2.70;;;18.30;99.90;;;;;;5003682;28;20439;-83
2022/08/02 01:41:00;;;;;;;4.67;3.17;;;18.20;99.90;;;;;;5025353;28;20424;-82
2022/08/02 01:43:28;;;;;;;3.07;2.60;;;18.20;99.90;;;;;;5019665;28;20444;-82
2022/08/02 01:45:56;;;;;;;3.37;2.83;;;18.10;99.90;;;;;;5009237;28;20473;-82
2022/08/02 01:48:23;;;;;;;2.70;2.50;;;18.10;99.90;;;;;;5008646;28;20438;-83
2022/08/02 01:50:50;;;;;;;6.80;2.60;;;18.20;99.90;;;;;;5023570;28;20964;-82
2022/08/02 01:53:18;;;;;;;2.30;2.10;;;19.70;99.90;;;;;;5025993;28;20456;-81
2022/08/02 01:55:46;;;;;;;3.97;2.30;;;18.30;99.90;;;;;;5007838;28;20443;-83
2022/08/02 01:58:15;;;;;;;9.00;2.70;;;18.90;99.90;;;;;;5025237;28;20524;-82
2022/08/02 02:00:42;;;;;;;3.90;3.13;;;18.40;99.90;;;;;;5034573;28;20963;-87
2022/08/02 02:03:12;;;;;;;8.40;3.07;;;18.50;99.90;;;;;;5042436;28;20424;-86
2022/08/02 02:05:39;;;;;;;5.03;2.63;;;18.80;99.90;;;;;;5049675;28;20578;-89
2022/08/02 02:08:05;;;;;;;7.20;3.90;;;19.80;99.90;;;;;;5030725;28;21033;-86
2022/08/02 02:10:34;;;;;;;10.13;5.60;;;18.90;99.90;;;;;;5014171;28;20456;-87
2022/08/02 02:13:07;;;;;;;8.63;5.97;;;19.20;99.90;;;;;;5027000;28;20958;-87
2022/08/02 02:15:34;;;;;;;9.40;6.00;;;19.30;99.90;;;;;;5031990;28;20428;-87
2022/08/02 02:18:02;;;;;;;6.20;5.60;;;19.60;99.90;;;;;;5021724;28;20480;-88
2022/08/02 02:20:28;;;;;;;7.73;5.20;;;19.70;99.90;;;;;;5040246;28;20442;-87
2022/08/02 02:22:53;;;;;;;8.30;5.30;;;19.80;99.90;;;;;;5059847;28;20824;-88
2022/08/02 02:25:22;;;;;;;9.80;6.10;;;19.80;99.90;;;;;;5045229;28;20936;-87
2022/08/02 02:27:56;;;;;;;9.03;5.67;;;20.10;99.90;;;;;;5025935;28;20189;-86
2022/08/02 02:30:26;;;;;;;9.53;5.93;;;19.90;99.90;;;;;;5023682;28;20563;-86
2022/08/02 02:32:56;;;;;;;5.93;5.30;;;19.80;99.90;;;;;;5025612;28;20459;-85
2022/08/02 02:35:22;;;;;;;6.77;5.83;;;;;;;;;;5024864;28;21072;-86
2022/08/02 02:37:49;;;;;;;6.30;5.20;;;19.70;99.90;;;;;;5023306;28;20439;-86
2022/08/02 02:40:17;;;;;;;5.83;5.23;;;19.60;99.90;;;;;;5005964;28;20512;-87
2022/08/02 02:42:43;;;;;;;6.93;5.33;;;19.50;99.90;;;;;;5041609;28;20440;-85
2022/08/02 02:45:10;;;;;;;18.30;6.20;;;19.60;99.90;;;;;;5034121;28;20471;-85
2022/08/02 02:47:37;;;;;;;11.80;5.07;;;19.60;99.90;;;;;;5035397;28;20415;-85
2022/08/02 02:50:03;;;;;;;5.87;5.37;;;19.50;99.90;;;;;;5043702;28;20443;-85
2022/08/02 02:52:30;;;;;;;5.87;5.13;;;19.40;99.90;;;;;;5043388;28;20405;-85
2022/08/02 02:54:56;;;;;;;7.80;5.70;;;19.40;99.90;;;;;;5025155;28;20415;-85
2022/08/02 02:57:22;;;;;;;7.13;5.30;;;19.20;99.90;;;;;;5042821;28;20444;-86
2022/08/02 02:59:48;;;;;;;9.60;5.00;;;19.50;99.90;;;;;;5027715;28;20945;-87
2022/08/02 03:02:14;;;;;;;7.00;5.50;;;19.00;99.90;;;;;;5024479;28;20430;-87
2022/08/02 03:04:40;;;;;;;6.20;4.70;;;18.90;99.90;;;;;;5023545;28;20185;-88
2022/08/02 03:07:06;;;;;;;6.83;4.80;;;18.90;99.90;;;;;;5025399;28;20181;-87
2022/08/02 03:09:32;;;;;;;5.93;4.20;;;18.80;99.90;;;;;;5019163;28;20467;-88
2022/08/02 03:11:58;;;;;;;5.67;5.07;;;;;;;;;;5043705;28;20436;-87
2022/08/02 03:14:24;;;;;;;11.40;4.70;;;18.50;99.90;;;;;;5037153;28;20465;-87
2022/08/02 03:16:51;;;;;;;5.43;4.93;;;18.50;99.90;;;;;;5029907;28;20439;-86
2022/08/02 03:19:18;;;;;;;5.33;4.70;;;21.50;99.90;;;;;;5035739;28;20460;-87
2022/08/02 03:21:45;;;;;;;8.43;5.83;;;18.40;99.90;;;;;;5031426;28;20451;-87
2022/08/02 03:24:12;;;;;;;7.10;5.23;;;18.20;99.90;;;;;;5022075;28;20491;-86
2022/08/02 03:26:38;;;;;;;5.57;4.90;;;;;;;;;;5042997;28;20437;-87
2022/08/02 03:29:05;;;;;;;6.90;5.90;;;18.30;99.90;;;;;;5037070;28;20511;-86
2022/08/02 03:31:31;;;;;;;7.90;5.20;;;;;;;;;;5033856;28;20441;-87
2022/08/02 03:33:58;;;;;;;5.40;4.87;;;18.20;99.90;;;;;;5024570;28;20460;-85
2022/08/02 03:36:27;;;;;;;7.50;5.87;;;18.20;99.90;;;;;;5025727;28;20400;-86
2022/08/02 03:38:54;;;;;;;5.93;4.90;;;18.20;99.90;;;;;;5025875;28;20432;-86
2022/08/02 03:41:21;;;;;;;9.30;5.30;;;18.20;99.90;;;;;;5025200;28;20421;-85
2022/08/02 03:43:48;;;;;;;7.90;4.57;;;18.10;99.90;;;;;;5041664;28;20501;-86
2022/08/02 03:46:16;;;;;;;8.57;5.53;;;18.10;99.90;;;;;;5026454;28;21013;-87
2022/08/02 03:48:43;;;;;;;7.07;5.27;;;18.10;99.90;;;;;;5029249;28;20992;-86
2022/08/02 03:51:09;;;;;;;9.13;5.73;;;18.70;99.90;;;;;;5043723;28;20443;-87
2022/08/02 03:53:36;;;;;;;8.90;5.50;;;18.20;99.90;;;;;;5011068;28;20464;-88
2022/08/02 03:56:04;;;;;;;8.73;4.70;;;18.30;99.90;;;;;;5040647;28;20446;-87
2022/08/02 03:58:29;;;;;;;9.67;5.43;;;;;;;;;;5042713;28;20432;-86
2022/08/02 04:00:57;;;;;;;5.90;5.30;;;18.50;99.90;;;;;;5035872;28;20865;-88
2022/08/02 04:03:23;;;;;;;6.60;5.00;;;18.60;99.90;;;;;;5040362;28;20457;-85
2022/08/02 04:05:48;;;;;;;5.53;4.97;;;18.70;99.90;;;;;;5034758;28;20431;-85
2022/08/02 04:08:14;;;;;;;6.83;6.07;;;18.70;99.90;;;;;;5020503;28;20467;-86
2022/08/02 04:13:28;;;;;;;10.13;7.80;;;18.80;99.90;;;;;;5029936;28;20589;-85
2022/08/02 04:15:58;;;;;;;7.70;5.67;;;18.80;99.90;;;;;;5016662;28;20436;-87
2022/08/02 04:18:28;;;;;;;8.50;6.20;;;18.90;99.90;;;;;;5030522;28;20436;-87
2022/08/02 04:20:58;;;;;;;11.20;5.77;;;18.90;99.90;;;;;;5032259;28;20452;-86
2022/08/02 04:23:26;;;;;;;8.60;6.13;;;18.90;99.90;;;;;;5034916;28;20447;-86
2022/08/02 04:25:52;;;;;;;10.73;6.33;;;18.90;99.90;;;;;;5020404;28;20436;-86
2022/08/02 04:28:18;;;;;;;7.20;6.10;;;18.90;99.90;;;;;;5036192;28;20428;-86
2022/08/02 04:30:48;;;;;;;7.73;5.57;;;19.00;99.90;;;;;;5020096;28;20489;-87
2022/08/02 04:33:15;;;;;;;7.40;6.43;;;19.00;99.90;;;;;;5031627;28;21008;-87
2022/08/02 04:35:40;;;;;;;11.63;6.17;;;19.10;99.90;;;;;;5019624;28;20432;-86
2022/08/02 04:38:07;;;;;;;9.03;6.30;;;19.20;99.90;;;;;;5036140;28;20432;-86
2022/08/02 04:40:32;;;;;;;9.17;6.97;;;19.40;99.90;;;;;;5033095;28;20193;-87
2022/08/02 04:42:58;;;;;;;12.00;5.80;;;19.60;99.90;;;;;;5028571;28;20471;-88
2022/08/02 04:45:25;;;;;;;6.43;5.27;;;20.20;99.90;;;;;;5025969;28;20202;-87
2022/08/02 04:47:51;;;;;;;6.97;5.60;;;21.10;99.90;;;;;;5026022;28;20182;-87
2022/08/02 04:50:16;;;;;;;7.70;5.10;;;22.00;99.90;;;;;;5025319;28;20463;-86
2022/08/02 04:52:42;;;;;;;8.07;6.30;;;22.80;99.90;;;;;;5025438;28;20194;-86
2022/08/02 04:55:08;;;;;;;7.63;5.10;;;23.50;99.90;;;;;;5043689;28;20217;-85
2022/08/02 05:00:19;;;;;;;6.70;4.83;;;25.70;99.90;;;;;;5045992;28;20196;-84
2022/08/02 05:02:44;;;;;;;5.13;4.63;;;26.60;99.90;;;;;;5050989;28;20428;-84
2022/08/02 05:05:10;;;;;;;5.97;5.37;;;26.40;99.90;;;;;;5049280;28;20209;-84
2022/08/02 05:07:35;;;;;;;6.20;5.33;;;26.20;99.90;;;;;;5034847;28;20288;-85
2022/08/02 05:10:01;;;;;;;5.40;4.67;;;26.40;99.90;;;;;;5052357;28;20204;-84
2022/08/02 05:12:26;;;;;;;6.33;4.80;;;26.80;99.90;;;;;;5044759;28;20186;-85
2022/08/02 05:14:52;;;;;;;6.80;5.13;;;26.80;99.90;;;;;;5048749;28;20229;-84
2022/08/02 05:17:17;;;;;;;7.67;5.23;;;26.80;99.90;;;;;;5043654;28;20183;-85
2022/08/02 05:19:43;;;;;;;6.07;5.57;;;27.00;99.90;;;;;;5052724;28;20213;-85
2022/08/02 05:22:08;;;;;;;5.60;4.37;;;27.10;99.90;;;;;;5025237;28;20195;-85
2022/08/02 05:24:34;;;;;;;9.07;4.87;;;27.30;99.90;;;;;;5047568;28;20214;-84
2022/08/02 05:27:00;;;;;;;7.23;5.00;;;27.10;99.90;;;;;;5058624;28;20258;-85
2022/08/02 05:29:26;;;;;;;6.50;5.00;;;27.10;99.90;;;;;;5064770;28;20199;-86
2022/08/02 05:31:53;;;;;;;5.97;4.37;;;;;;;;;;5051724;28;20195;-85
2022/08/02 05:34:18;;;;;;;4.80;4.27;;;29.30;99.90;;;;;;5058009;28;21060;-85
2022/08/02 05:36:44;;;;;;;6.40;5.00;;;31.10;99.90;;;;;;5044746;28;20452;-84
2022/08/02 05:39:10;;;;;;;6.97;5.07;;;32.40;96.70;;;;;;5053373;28;20190;-84
2022/08/02 05:41:36;;;;;;;11.20;5.63;;;34.20;93.30;;;;;;5043901;28;20187;-86
2022/08/02 05:44:02;;;;;;;6.53;5.53;;;36.00;88.50;;;;;;5041920;28;20199;-86
2022/08/02 05:46:29;;;;;;;6.17;5.57;;;36.50;76.00;;;;;;5042090;28;20234;-87
2022/08/02 05:48:55;;;;;;;5.40;4.90;;;37.20;71.30;;;;;;5041243;28;20458;-86
2022/08/02 05:51:48;;;;;;;4.50;4.10;;;36.50;67.50;;;;;;5048363;28;20996;-87
2022/08/02 05:54:30;;;;;;;5.40;4.90;;;36.00;66.50;;;;;;5038472;28;20239;-87
2022/08/02 05:57:03;;;;;;;5.43;5.00;;;37.10;64.30;;;;;;5047723;28;20800;-86
2022/08/02 05:59:48;;;;;;;8.63;5.93;;;36.70;61.00;;;;;;5040260;28;20489;-86
2022/08/02 06:02:24;;;;;;;7.23;5.53;;;35.80;62.80;;;;;;5035513;28;20435;-86
2022/08/02 06:05:01;;;;;;;6.60;6.10;;;35.70;63.10;;;;;;5030830;28;20418;-86
2022/08/02 06:07:29;;;;;;;7.43;6.60;;;36.10;63.00;;;;;;5037100;28;20421;-87
2022/08/02 06:09:55;;;;;;;8.07;7.33;;;36.50;60.70;;;;;;5040953;28;20497;-86
2022/08/02 06:12:21;;;;;;;7.00;6.43;;;36.20;60.00;;;;;;5031787;28;20448;-86
2022/08/02 06:14:49;;;;;;;7.83;6.00;;;35.50;59.50;;;;;;5034810;28;20486;-86
2022/08/02 06:17:15;;;;;;;8.40;6.70;;;35.20;61.10;;;;;;5028548;28;20433;-86
2022/08/02 06:19:42;;;;;;;6.60;6.17;;;35.00;61.60;;;;;;5017783;28;20494;-86
2022/08/02 06:22:14;;;;;;;6.63;6.23;;;34.70;61.40;;;;;;5033160;28;20480;-86
2022/08/02 06:24:49;;;;;;;6.43;6.03;;;33.60;63.00;;;;;;5037165;28;20440;-86
2022/08/02 06:27:15;;;;;;;6.30;5.70;;;35.30;64.70;;;;;;5024182;28;20478;-86
2022/08/02 06:29:43;;;;;;;6.43;6.03;;;36.10;61.10;;;;;;5019436;28;20744;-86
2022/08/02 06:32:09;;;;;;;6.60;5.97;;;35.90;59.50;;;;;;5029996;28;20434;-85
2022/08/02 06:34:40;;;;;;;6.60;6.10;;;36.30;59.50;;;;;;5046827;28;20538;-85
2022/08/02 06:37:15;;;;;;;7.53;6.97;;;36.60;58.20;;;;;;5037345;28;20444;-84
2022/08/02 06:39:47;;;;;;;7.87;7.30;;;37.80;57.50;;;;;;5042871;28;20441;-84
2022/08/02 06:42:21;;;;;;;8.30;7.60;;;38.40;55.10;;;;;;5048682;28;20444;-86
2022/08/02 06:44:47;;;;;;;9.30;8.17;;;38.90;54.60;;;;;;5041889;28;20472;-85
2022/08/02 06:47:12;;;;;;;9.40;8.70;;;40.50;53.00;;;;;;5020818;28;20432;-85
2022/08/02 06:49:39;;;;;;;10.20;9.60;;;41.30;49.90;;;;;;5021148;28;20194;-87
2022/08/02 06:52:05;;;;;;;11.83;11.13;;;42.70;49.10;;;;;;5020541;28;20182;-86
2022/08/02 06:54:30;;;;;;;11.57;10.97;;;42.70;45.80;;;;;;5033800;28;20482;-85
2022/08/02 06:56:56;;;;;;;10.77;10.10;;;41.20;47.30;;;;;;5040710;28;20181;-85
2022/08/02 06:59:21;;;;;;;10.90;10.00;;;42.40;46.40;;;;;;5040523;28;20251;-86
2022/08/02 07:01:47;;;;;;;12.00;10.77;;;43.60;45.00;;;;;;5037483;28;20544;-85
2022/08/02 07:04:15;;;;;;;11.13;10.27;;;41.50;44.10;;;;;;5042120;28;20211;-84
2022/08/02 07:06:41;;;;;;;10.87;10.37;;;41.50;44.60;;;;;;5035564;28;20182;-84
2022/08/02 07:09:06;;;;;;;9.13;8.60;;;41.70;44.70;;;;;;5031599;28;20468;-84
2022/08/02 07:11:32;;;;;;;12.57;11.87;;;43.60;43.90;;;;;;5029794;28;20182;-85
2022/08/02 07:13:57;;;;;;;12.23;11.63;;;44.70;41.10;;;;;;5023426;28;20194;-86
2022/08/02 07:16:23;;;;;;;11.33;10.73;;;44.60;40.40;;;;;;5024924;28;20238;-85
2022/08/02 07:18:48;;;;;;;12.00;11.30;;;45.20;39.60;;;;;;5012951;28;20181;-85
2022/08/02 07:21:14;;;;;;;10.80;10.20;;;45.10;38.50;;;;;;5012688;28;20178;-86
2022/08/02 07:23:39;;;;;;;10.53;10.03;;;42.70;39.00;;;;;;5009634;28;20667;-85
2022/08/02 07:26:05;;;;;;;13.23;12.27;;;42.30;42.00;;;;;;5026799;28;20654;-88
2022/08/02 07:28:31;;;;;;;12.87;12.20;;;44.80;38.70;;;;;;5009924;28;20177;-86
2022/08/02 07:30:56;;;;;;;13.30;12.70;;;44.80;39.20;;;;;;5028793;28;20174;-85
2022/08/02 07:33:22;;;;;;;14.47;13.87;;;45.50;38.40;;;;;;5020119;28;20256;-85
2022/08/02 07:35:47;;;;;;;15.07;14.03;;;45.20;37.50;;;;;;5026242;28;20209;-84
2022/08/02 07:38:13;;;;;;;13.37;12.77;;;44.40;38.20;;;;;;5029658;28;20197;-86
2022/08/02 07:40:38;;;;;;;14.27;12.40;;;43.40;38.40;;;;;;5048289;28;20208;-85
2022/08/02 07:43:04;;;;;;;13.63;12.83;;;42.10;39.80;;;;;;5027029;28;20238;-85
2022/08/02 07:45:31;;;;;;;13.33;12.63;;;42.30;40.90;;;;;;5045821;28;20192;-84
2022/08/02 07:47:57;;;;;;;14.43;13.50;;;41.60;40.40;;;;;;5025235;28;20239;-84
2022/08/02 07:50:22;;;;;;;14.30;13.40;;;40.60;40.90;;;;;;5053875;28;20435;-86
2022/08/02 07:52:48;;;;;;;14.10;13.50;;;40.40;41.40;;;;;;5060767;28;20157;-86
2022/08/02 07:55:16;;;;;;;15.80;14.80;;;42.10;40.70;;;;;;5026170;28;20174;-86
2022/08/02 07:57:43;;;;;;;14.17;12.40;;;43.60;39.60;;;;;;5041035;28;20193;-86
2022/08/02 08:00:09;;;;;;;13.70;12.90;;;41.30;39.50;;;;;;5014487;28;20470;-83
2022/08/02 08:02:35;;;;;;;13.07;12.37;;;40.50;41.40;;;;;;5017010;28;20492;-84
2022/08/02 08:05:01;;;;;;;14.13;13.43;;;41.20;42.00;;;;;;5016730;28;20449;-84
2022/08/02 08:07:26;;;;;;;12.43;11.73;;;41.80;40.80;;;;;;5017084;28;20432;-84
2022/08/02 08:09:52;;;;;;;12.63;11.67;;;40.80;40.30;;;;;;5018651;28;20298;-84
2022/08/02 08:12:18;;;;;;;14.37;13.30;;;42.30;40.80;;;;;;5016092;28;20183;-82
2022/08/02 08:14:44;;;;;;;13.53;12.83;;;41.90;39.80;;;;;;4998740;28;20594;-84
2022/08/02 08:17:10;;;;;;;13.20;12.40;;;42.90;39.70;;;;;;4999052;28;20439;-85
2022/08/02 08:19:35;;;;;;;12.87;12.27;;;42.30;39.10;;;;;;5017114;28;20209;-84
2022/08/02 08:22:02;;;;;;;13.70;13.10;;;42.60;39.80;;;;;;4991821;28;20443;-84
2022/08/02 08:24:28;;;;;;;13.80;13.13;;;41.90;38.60;;;;;;5017350;28;20189;-83
2022/08/02 08:26:54;;;;;;;13.57;12.70;;;41.60;39.90;;;;;;5016317;28;20416;-84
2022/08/02 08:29:21;;;;;;;13.10;12.40;;;41.80;39.60;;;;;;5009219;28;20519;-83
2022/08/02 08:31:46;;;;;;;14.07;13.13;;;41.70;39.60;;;;;;5011832;28;20979;-83
2022/08/02 08:34:12;;;;;;;11.37;10.77;;;38.30;41.40;;;;;;5015755;28;20559;-82
2022/08/02 08:36:38;;;;;;;12.70;11.73;;;37.90;45.10;;;;;;5016315;28;20264;-84
2022/08/02 08:39:04;;;;;;;13.63;12.90;;;40.40;43.10;;;;;;4999162;28;20475;-84
2022/08/02 08:41:30;;;;;;;11.90;11.40;;;41.70;40.80;;;;;;5016618;28;20531;-85
2022/08/02 08:43:55;;;;;;;11.97;11.17;;;39.30;40.10;;;;;;5015678;28;20185;-84
2022/08/02 08:46:29;;;;;;;11.80;10.93;;;40.10;42.80;;;;;;5016502;28;20197;-83
2022/08/02 08:49:05;;;;;;;12.30;11.70;;;39.10;41.50;;;;;;5015479;28;20972;-82
2022/08/02 08:51:36;;;;;;;11.73;11.13;;;38.30;42.70;;;;;;5016892;28;20431;-83
2022/08/02 08:54:05;;;;;;;10.60;10.10;;;37.80;44.40;;;;;;5017451;28;20468;-84
2022/08/02 08:56:35;;;;;;;11.67;10.97;;;37.90;45.20;;;;;;5014423;28;20440;-84
2022/08/02 08:59:02;;;;;;;10.80;10.13;;;39.20;43.50;;;;;;5018754;28;20545;-83
2022/08/02 09:01:28;;;;;;;11.87;11.27;;;40.70;42.60;;;;;;5016447;28;20443;-85
2022/08/02 09:03:54;;;;;;;11.27;10.77;;;41.00;40.00;;;;;;5014819;28;20459;-83
2022/08/02 09:06:19;;;;;;;11.30;10.80;;;40.60;41.30;;;;;;5017096;28;20433;-84
2022/08/02 09:08:45;;;;;;;11.20;10.70;;;40.70;41.00;;;;;;5016955;28;20265;-83
2022/08/02 09:11:21;;;;;;;11.43;10.83;;;41.10;41.40;;;;;;5021829;28;20181;-84
2022/08/02 09:13:52;;;;;;;11.83;11.10;;;41.20;40.60;;;;;;5023187;28;20467;-82
2022/08/02 09:16:36;;;;;;;11.63;11.13;;;41.60;39.70;;;;;;5018833;28;20433;-84
2022/08/02 09:19:25;;;;;;;12.00;11.20;;;41.60;40.10;;;;;;5016723;28;20452;-84
2022/08/02 09:22:04;;;;;;;12.13;11.40;;;41.10;39.70;;;;;;5020464;28;20488;-83
2022/08/02 09:24:40;;;;;;;12.23;11.47;;;40.20;40.30;;;;;;5015436;28;20433;-84
2022/08/02 09:27:11;;;;;;;11.03;10.53;;;40.10;41.20;;;;;;5019382;28;20435;-84
2022/08/02 09:29:37;;;;;;;12.10;11.40;;;40.30;41.20;;;;;;5022157;28;20459;-83
2022/08/02 09:32:03;;;;;;;11.47;10.97;;;40.60;40.70;;;;;;5018579;28;20447;-83
2022/08/02 09:34:49;;;;;;;12.07;11.47;;;40.60;40.40;;;;;;5010174;28;20552;-84
2022/08/02 09:37:22;;;;;;;11.87;11.37;;;40.70;40.70;;;;;;5017785;28;21380;-84
2022/08/02 09:39:47;;;;;;;12.20;11.50;;;40.80;40.00;;;;;;5018904;28;20522;-84
2022/08/02 09:42:14;;;;;;;11.37;10.73;;;40.30;40.00;;;;;;5015596;28;20445;-82
2022/08/02 09:44:39;;;;;;;11.80;11.10;;;39.20;41.30;;;;;;5015220;28;20208;-84
2022/08/02 09:47:15;;;;;;;11.33;10.63;;;38.90;41.80;;;;;;5015087;28;20566;-84
2022/08/02 09:49:46;;;;;;;11.40;10.53;;;38.40;42.00;;;;;;5012754;28;20214;-84
2022/08/02 09:52:11;;;;;;;10.73;10.10;;;36.50;44.10;;;;;;5015443;28;20471;-84
2022/08/02 09:54:39;;;;;;;9.40;8.70;;;37.20;44.50;;;;;;5010042;28;20819;-84
2022/08/02 09:57:04;;;;;;;11.13;10.53;;;38.40;44.00;;;;;;5016614;28;20275;-83
2022/08/02 09:59:30;;;;;;;11.80;11.20;;;40.00;42.80;;;;;;5012890;28;20491;-84
2022/08/02 10:01:58;;;;;;;11.77;10.93;;;41.10;40.50;;;;;;5016716;28;20797;-84
2022/08/02 10:04:25;;;;;;;13.30;12.40;;;41.70;39.30;;;;;;5018530;28;20692;-83
2022/08/02 10:06:52;;;;;;;13.70;13.00;;;42.40;39.00;;;;;;5018337;28;22130;-82
2022/08/02 10:09:19;;;;;;;12.80;11.80;;;41.00;38.30;;;;;;5016011;28;21201;-82
2022/08/02 10:11:45;;;;;;;12.47;11.23;;;40.30;40.00;;;;;;5018539;28;20924;-84
2022/08/02 10:14:11;;;;;;;10.60;10.10;;;37.00;41.20;;;;;;5022249;28;20479;-83
2022/08/02 10:16:39;;;;;;;11.00;10.33;;;37.90;44.70;;;;;;5021372;28;20169;-84
2022/08/02 10:19:05;;;;;;;11.57;10.97;;;38.90;41.70;;;;;;5019488;28;20487;-83
2022/08/02 10:22:04;;;;;;;11.70;11.10;;;38.90;41.60;;;;;;5019063;28;20436;-82
2022/08/02 10:24:32;;;;;;;11.97;10.97;;;38.90;41.50;;;;;;4968202;28;20224;-83
2022/08/02 10:26:58;;;;;;;12.43;11.70;;;39.50;41.30;;;;;;5016293;28;20448;-83
2022/08/02 10:29:33;;;;;;;12.10;11.50;;;38.00;42.00;;;;;;5019885;28;20479;-83
2022/08/02 10:32:24;;;;;;;11.27;10.70;;;38.40;41.10;;;;;;5020885;28;20428;-83
2022/08/02 10:34:59;;;;;;;11.67;11.00;;;37.70;41.80;;;;;;5020323;28;20466;-83
2022/08/02 10:37:31;;;;;;;11.57;10.87;;;36.80;41.90;;;;;;5020335;28;20439;-83
2022/08/02 10:39:56;;;;;;;10.60;9.87;;;35.10;43.60;;;;;;5017951;28;20457;-83
2022/08/02 10:42:41;;;;;;;11.13;10.33;;;33.90;47.30;;;;;;5016522;28;20424;-82
2022/08/02 10:45:10;;;;;;;9.57;9.07;;;33.40;47.50;;;;;;5011482;28;20276;-83
2022/08/02 10:47:36;;;;;;;8.67;8.10;;;33.30;47.70;;;;;;5019273;28;20690;-82
2022/08/02 10:50:03;;;;;;;8.67;8.17;;;32.40;49.20;;;;;;5019763;28;20994;-83
2022/08/02 10:52:30;;;;;;;8.03;7.23;;;32.20;49.90;;;;;;5002528;28;21250;-83
2022/08/02 10:55:01;;;;;;;7.40;6.90;;;31.80;50.40;;;;;;5017203;28;20471;-82
2022/08/02 10:57:29;;;;;;;7.47;6.97;;;31.80;51.00;;;;;;5018784;28;20442;-82
2022/08/02 11:00:08;;;;;;;7.20;6.70;;;32.00;50.60;;;;;;5016545;28;20457;-84
2022/08/02 11:02:42;;;;;;;6.70;6.30;;;32.20;50.80;;;;;;5017889;28;20437;-82
2022/08/02 11:05:36;;;;;;;7.50;6.80;;;32.60;50.00;;;;;;5018818;28;20443;-84
2022/08/02 11:08:18;;;;;;;6.73;6.33;;;32.50;49.30;;;;;;5015585;28;21357;-82
2022/08/02 11:10:43;;;;;;;6.77;6.37;;;32.30;50.00;;;;;;5017675;28;20473;-84
2022/08/02 11:13:18;;;;;;;6.83;6.43;;;32.20;50.60;;;;;;5018260;28;21269;-83
2022/08/02 11:16:01;;;;;;;7.90;6.77;;;31.90;51.00;;;;;;5018289;28;20204;-84
2022/08/02 11:18:49;;;;;;;7.37;6.77;;;31.80;51.70;;;;;;5018571;28;20435;-84
2022/08/02 11:21:28;;;;;;;6.10;5.70;;;31.70;51.30;;;;;;5020961;28;20417;-83
2022/08/02 11:23:55;;;;;;;5.40;4.90;;;30.90;52.90;;;;;;5017538;28;20507;-84
2022/08/02 11:26:29;;;;;;;5.33;4.93;;;30.80;53.70;;;;;;5018492;28;20447;-84
2022/08/02 11:28:56;;;;;;;6.23;5.67;;;30.50;53.50;;;;;;5015929;28;20457;-83
2022/08/02 11:31:21;;;;;;;6.10;5.60;;;30.30;54.30;;;;;;5014877;28;20533;-83
2022/08/02 11:33:51;;;;;;;5.43;4.63;;;30.50;54.20;;;;;;5019735;28;20552;-82
2022/08/02 11:36:17;;;;;;;5.87;5.43;;;30.60;52.70;;;;;;5018964;28;20185;-83
2022/08/02 11:38:43;;;;;;;5.30;4.97;;;30.70;52.40;;;;;;5016296;28;20608;-82
2022/08/02 11:41:17;;;;;;;5.20;4.83;;;30.90;52.80;;;;;;5016918;28;20531;-84
2022/08/02 11:43:43;;;;;;;6.03;5.33;;;31.00;51.80;;;;;;5019046;28;20804;-83
2022/08/02 11:46:13;;;;;;;5.73;5.20;;;30.50;53.60;;;;;;5025049;28;20452;-84
2022/08/02 11:48:40;;;;;;;9.53;5.30;;;30.20;55.50;;;;;;5018187;28;20461;-82
2022/08/02 11:51:08;;;;;;;4.30;4.00;;;29.90;55.90;;;;;;5018372;28;20869;-83
2022/08/02 11:53:50;;;;;;;6.40;5.60;;;30.00;56.10;;;;;;5018941;28;20588;-83
2022/08/02 11:56:17;;;;;;;5.00;4.60;;;30.30;54.90;;;;;;5015276;28;20916;-84
2022/08/02 11:59:09;;;;;;;5.17;4.70;;;30.50;55.30;;;;;;5017263;28;20420;-83
2022/08/02 12:01:37;;;;;;;4.93;4.53;;;31.10;55.20;;;;;;5018940;28;20469;-83
2022/08/02 12:04:04;;;;;;;5.30;4.90;;;31.90;53.60;;;;;;5020609;28;20444;-83
2022/08/02 12:06:31;;;;;;;5.43;5.13;;;31.80;52.00;;;;;;5017443;28;20510;-84
2022/08/02 12:09:11;;;;;;;6.30;5.90;;;31.90;52.40;;;;;;5011125;28;20619;-84
2022/08/02 12:11:37;;;;;;;6.97;6.47;;;32.10;51.70;;;;;;5021028;28;20485;-83
2022/08/02 12:14:03;;;;;;;6.20;5.80;;;31.60;51.60;;;;;;5006948;28;20527;-82
2022/08/02 12:19:25;;;;;;;6.17;4.80;;;31.50;52.70;;;;;;5022277;28;20456;-82
2022/08/02 12:22:06;;;;;;;5.30;4.90;;;31.20;52.80;;;;;;5022515;28;20425;-84
2022/08/02 12:24:32;;;;;;;5.87;5.47;;;31.00;53.80;;;;;;5022577;28;20491;-82
2022/08/02 12:26:57;;;;;;;7.23;4.70;;;31.00;53.70;;;;;;5020394;28;20537;-84
2022/08/02 12:29:34;;;;;;;5.77;5.07;;;31.00;53.00;;;;;;5020495;28;20699;-82
2022/08/02 12:32:01;;;;;;;5.47;4.97;;;30.70;52.50;;;;;;5023041;28;20186;-83
2022/08/02 12:34:28;;;;;;;4.80;4.40;;;30.50;52.80;;;;;;5023885;28;20588;-85
2022/08/02 12:37:06;;;;;;;5.73;5.10;;;30.30;53.80;;;;;;5021866;28;21596;-85
2022/08/02 12:39:40;;;;;;;5.27;4.87;;;30.00;54.30;;;;;;5019364;28;20613;-83
2022/08/02 12:42:09;;;;;;;4.83;4.53;;;29.90;54.80;;;;;;5019540;28;20432;-84
2022/08/02 12:44:49;;;;;;;8.87;4.47;;;29.80;53.90;;;;;;5019259;28;20427;-83
2022/08/02 12:47:15;;;;;;;6.20;4.70;;;30.20;53.90;;;;;;5024166;28;20886;-84
2022/08/02 12:49:40;;;;;;;6.33;4.83;;;30.80;53.60;;;;;;5025246;28;20464;-84
2022/08/02 12:52:20;;;;;;;7.37;5.00;;;31.30;52.90;;;;;;5021640;28;20326;-83
2022/08/02 12:54:47;;;;;;;5.73;5.20;;;31.80;52.10;;;;;;5019484;28;20202;-83
2022/08/02 12:57:18;;;;;;;5.77;5.20;;;32.20;51.00;;;;;;5021562;28;20474;-85
2022/08/02 12:59:49;;;;;;;5.07;4.77;;;32.40;50.00;;;;;;5019570;28;20461;-84